• Join FlightAware (Why Join?)
  • Login
  • US Flag 
02:10AM EDT


 

Airport Tracker/Info


-or-


 

Live Flight TrackerFlight Track Log ✈ N171TS ✈ 15-Jun-2013 ✈ KENW - KDPA

Flight Track Log - Related Links

Times and Time Zones

All times are in EDT time to prevent confusion due to time zone crossing. See the N171TS flight status page for this flight to view local times or setup timezone preferences in your user account.

Time Position Orientation Groundspeed Altitude Reporting Facility
EDT Latitude Longitude Course Direction KTS MPH feet Rate Location/Type
02:36PM 42.6167 -87.9667 270° West 116 133 2,700  Level KMKE
02:37PM 42.6161 -87.9894 268° West 131 151 3,200 600 Climbing Chicago Center
02:38PM 42.5861 -87.9975 191° South 113 130 3,700 300 Climbing Chicago Center
02:39PM 42.5478 -88.0111 195° South 134 154 3,900  Climbing Chicago Center
02:40PM 42.5081 -88.0356 204° Southwest 147 169 3,800 -60 Descending Chicago Center
02:41PM 42.4678 -88.0572 202° Southwest 152 175 3,800  Level Chicago Center
02:42PM 42.4267 -88.0764 199° South 156 180 3,800 -120 Level Chicago Center
02:43PM 42.3781 -88.0986 199° South 158 182 3,600 -420 Descending Chicago Center
02:44PM 42.3367 -88.1250 205° Southwest 160 184 3,000 -420 Descending Chicago Center
02:45PM 42.2975 -88.1486 204° Southwest 158 182 2,800 -60 Descending Chicago Center
02:46PM 42.2617 -88.1706 204° Southwest 151 174 2,900  Climbing Chicago Center
02:47PM 42.2253 -88.1881 200° South 145 167 2,900 -60 Level Chicago Center
02:48PM 42.1869 -88.2022 195° South 144 166 2,800  Descending Chicago Center
02:49PM 42.1419 -88.2233 199° South 143 165 2,900  Climbing Chicago Center
02:50PM 42.1064 -88.2431 202° Southwest 142 163 2,800 -60 Descending Chicago Center
02:51PM 42.0697 -88.2611 200° South 141 162 2,800  Level Chicago Center
02:52PM 42.0364 -88.2858 209° Southwest 143 165 2,900  Climbing Chicago Center
02:53PM 42.0281 -88.3353 257° West 138 159 2,900  Level Chicago Center
02:54PM 42.0136 -88.3947 252° West 141 162 2,900  Level Chicago Center
02:55PM 42.0028 -88.4436 253° West 139 160 2,900  Level Chicago Center
02:56PM 41.9686 -88.4644 204° Southwest 149 171 2,900 -60 Level Chicago Center
02:57PM 41.9286 -88.4547 170° South 150 173 2,800 -60 Descending Chicago Center
02:58PM 41.9250 -88.3922 94° East 163 188 2,800 -60 Level Chicago Center
02:59PM 41.9181 -88.3414 100° East 155 178 2,700 -780 Descending Chicago Center
03:00PM 41.9150 -88.2878 94° East 134 154 1,200 -840 Descending Chicago Center
03:01PM 41.9225 -88.2544 73° East 116 133 1,000 -240 Descending Chicago Center